首页
METAR-TAF:

METAR-TAF

机场 :

胡志明, 越南

新山一國際機場

纬度: 10-49N, 经度: 106-40E, 海拔: 19米

当前天气观测

该预报发布于22分钟前的22:00 UTC
风速4节,风向南转南东,在东转东南之间变化
温度 28°C
湿度 94%
气压 1008 hPa
能见度10公里或以上
散云层高于1700英尺

METAR: VVTS 252200Z 15004KT 110V170 9999 SCT017 28/27 Q1008 NOSIG

时间: 05:22 (22:22 UTC)

预报

该预报发布于5小时和22分钟前的17:00 UTC
预报有效从25日的 18点(UTC)到 26日的 24点(UTC)
风速6节,风向南转南东
能见度10公里或以上
散云层高于1700英尺
散云层高于4000英尺
成为
从 25日的 21点(UTC)到 25日的 22点(UTC)
风速2节,风向多变
成为
从 26日的 02点(UTC)到 26日的 03点(UTC)
风速10节,风向南转南东
短暂存在
从 26日的 07点(UTC)到 26日的 12点(UTC)
散云层高于1500英尺
少量云层高于1700英尺, 积雨云.
雷暴

TAF: VVTS 251700Z 2518/2624 16006KT 9999 SCT017 SCT040 BECMG 2521/2522 VRB02KT BECMG 2602/2603 16010KT TEMPO 2607/2612 TS SCT015 FEW017CB

超过4000个机场的气象观测和天气预报(METAR&TAF报告)。

可查询的气象台以黄色和红色小点在地图上表示。

将鼠标移到小点上方,可查看气象台名称。

然后点击查看天气观测和预报。

如需切换地图:点击带黑十字的绿色按钮放大地图;点击带横线的绿色按钮缩小地图;或者点击绿色箭头查看邻近地区的地图。


METAR-TAF: